createdAt,value
2017-12-20T00:02:03.878Z,9.80
2017-12-20T00:07:06.066Z,7.07
2017-12-20T00:12:08.282Z,6.50
2017-12-20T00:17:09.762Z,7.60
2017-12-20T00:22:12.347Z,7.63
2017-12-20T00:27:13.837Z,7.50
2017-12-20T00:32:15.285Z,7.80
2017-12-20T00:37:16.637Z,6.00
2017-12-20T00:42:18.731Z,6.73
2017-12-20T00:47:20.166Z,6.83
2017-12-20T00:52:22.158Z,6.33
2017-12-20T00:57:23.610Z,6.70
2017-12-20T01:02:25.055Z,5.00
2017-12-20T01:07:26.519Z,6.07
2017-12-20T01:12:28.750Z,6.40
2017-12-20T01:17:30.226Z,6.77
2017-12-20T01:22:32.023Z,6.37
2017-12-20T01:27:34.243Z,7.23
2017-12-20T01:32:35.690Z,5.43
2017-12-20T01:37:37.138Z,6.47
2017-12-20T01:42:38.630Z,6.47
2017-12-20T01:47:40.102Z,7.13
2017-12-20T01:52:42.090Z,5.33
2017-12-20T01:57:43.538Z,7.50
2017-12-20T02:02:45.050Z,6.63
2017-12-20T02:07:46.510Z,6.97
2017-12-20T02:12:48.018Z,6.10
2017-12-20T02:17:49.523Z,7.07
2017-12-20T02:22:51.398Z,5.50
2017-12-20T02:27:52.906Z,5.97
2017-12-20T02:32:54.442Z,5.83
2017-12-20T02:37:55.974Z,5.60
2017-12-20T02:42:58.214Z,6.60
2017-12-20T02:48:00.479Z,5.53
2017-12-20T02:53:02.442Z,5.33
2017-12-20T02:58:03.946Z,5.97
2017-12-20T03:03:05.481Z,6.07
2017-12-20T03:08:07.032Z,5.77
2017-12-20T03:13:08.547Z,6.00
2017-12-20T03:18:10.039Z,6.50
2017-12-20T03:23:11.850Z,5.70
2017-12-20T03:28:13.310Z,6.53
2017-12-20T03:33:15.574Z,5.93
2017-12-20T03:38:17.054Z,6.47
2017-12-20T03:43:19.288Z,6.97
2017-12-20T03:48:20.803Z,5.93
2017-12-20T03:53:23.198Z,5.80
2017-12-20T03:58:24.710Z,6.33
2017-12-20T04:03:26.214Z,6.20
2017-12-20T04:08:27.695Z,6.50
2017-12-20T04:13:29.190Z,6.27
2017-12-20T04:18:30.642Z,6.33
2017-12-20T04:23:32.102Z,6.70
2017-12-20T04:28:33.556Z,6.70
2017-12-20T04:33:35.003Z,6.07
2017-12-20T04:38:36.453Z,6.40
2017-12-20T04:43:37.904Z,5.90
2017-12-20T04:48:39.350Z,5.50
2017-12-20T04:53:41.307Z,5.80
2017-12-20T04:58:42.763Z,6.03
2017-12-20T05:03:44.961Z,5.70
2017-12-20T05:08:46.404Z,5.40
2017-12-20T05:13:48.594Z,8.40
2017-12-20T05:18:50.022Z,8.00
2017-12-20T05:23:51.834Z,7.83
2017-12-20T05:28:53.287Z,6.90
2017-12-20T05:33:55.503Z,7.67
2017-12-20T05:38:57.690Z,11.30
2017-12-20T05:43:59.150Z,6.63
2017-12-20T05:49:00.622Z,5.10
2017-12-20T05:54:02.570Z,4.93
2017-12-20T05:59:04.027Z,6.40
2017-12-20T06:04:06.927Z,6.60
2017-12-20T06:09:08.400Z,7.40
2017-12-20T06:14:10.593Z,6.00
2017-12-20T06:19:12.037Z,7.20
2017-12-20T06:24:13.822Z,6.00
2017-12-20T06:29:15.255Z,6.97
2017-12-20T06:34:16.706Z,6.90
2017-12-20T06:39:18.891Z,6.53
2017-12-20T06:44:20.334Z,7.03
2017-12-20T06:49:21.762Z,7.17
2017-12-20T06:54:24.109Z,7.53
2017-12-20T06:59:25.574Z,6.17
2017-12-20T07:04:27.039Z,6.13
2017-12-20T07:09:28.514Z,7.20
2017-12-20T07:14:29.999Z,6.03
2017-12-20T07:19:31.433Z,5.90
2017-12-20T07:24:32.898Z,15.33
2017-12-20T07:29:34.374Z,12.37
2017-12-20T07:34:35.869Z,12.30
2017-12-20T07:39:37.333Z,11.90
2017-12-20T07:44:39.531Z,9.77
2017-12-20T07:49:40.982Z,9.07
2017-12-20T07:54:43.338Z,7.83
2017-12-20T07:59:44.779Z,7.40
2017-12-20T08:04:46.243Z,6.50
2017-12-20T08:09:48.443Z,9.13
2017-12-20T08:14:49.903Z,8.03
2017-12-20T08:19:52.094Z,8.10
2017-12-20T08:24:53.918Z,8.97
2017-12-20T08:29:56.887Z,8.73
2017-12-20T08:34:58.367Z,8.20
2017-12-20T08:39:59.815Z,6.50
2017-12-20T08:45:01.262Z,5.33
2017-12-20T08:50:02.742Z,6.87
2017-12-20T08:55:06.182Z,6.83
2017-12-20T09:00:07.657Z,6.30
2017-12-20T09:05:09.154Z,6.90
2017-12-20T09:10:11.367Z,6.80
2017-12-20T09:15:12.814Z,6.23
2017-12-20T09:20:14.271Z,5.93
2017-12-20T09:25:16.094Z,8.60
2017-12-20T09:30:17.543Z,6.80
2017-12-20T09:35:20.519Z,6.23
2017-12-20T09:40:21.970Z,6.03
2017-12-20T09:45:23.402Z,6.00
2017-12-20T09:50:24.837Z,5.33
2017-12-20T09:55:26.837Z,5.57
2017-12-20T10:00:28.346Z,5.53
2017-12-20T10:05:29.822Z,6.67
2017-12-20T10:10:32.066Z,6.23
2017-12-20T10:15:33.560Z,6.60
2017-12-20T10:20:35.414Z,6.77
2017-12-20T10:25:36.879Z,6.80
2017-12-20T10:30:39.152Z,5.83
2017-12-20T10:35:40.651Z,6.50
2017-12-20T10:40:42.866Z,6.50
2017-12-20T10:45:45.126Z,6.10
2017-12-20T10:50:46.622Z,6.67
2017-12-20T10:55:49.337Z,7.83
2017-12-20T11:00:50.830Z,6.93
2017-12-20T11:05:52.351Z,7.40
2017-12-20T11:10:53.847Z,8.20
2017-12-20T11:15:55.313Z,6.00
2017-12-20T11:20:56.793Z,6.40
2017-12-20T11:25:58.639Z,6.30
2017-12-20T11:31:00.151Z,6.83
2017-12-20T11:36:01.729Z,7.03
2017-12-20T11:41:03.198Z,7.00
2017-12-20T11:46:04.659Z,7.27
2017-12-20T11:51:06.160Z,6.73
2017-12-20T11:56:07.838Z,8.10
2017-12-20T12:01:09.318Z,6.73
2017-12-20T12:06:10.835Z,6.40
2017-12-20T12:11:12.334Z,6.00
2017-12-20T12:16:14.558Z,6.40
2017-12-20T12:21:16.767Z,6.27
2017-12-20T12:26:18.231Z,6.90
2017-12-20T12:31:19.699Z,6.23
2017-12-20T12:36:21.198Z,7.50
2017-12-20T12:41:22.698Z,7.47
2017-12-20T12:46:24.226Z,7.73
2017-12-20T12:51:25.666Z,7.53
2017-12-20T12:56:27.634Z,8.90
2017-12-20T13:01:29.131Z,8.53
2017-12-20T13:06:31.358Z,8.67
2017-12-20T13:11:32.836Z,8.10
2017-12-20T13:16:34.314Z,7.77
2017-12-20T13:21:35.786Z,8.30
2017-12-20T13:26:37.608Z,8.53
2017-12-20T13:31:39.047Z,8.50
2017-12-20T13:36:40.491Z,7.03
2017-12-20T13:41:41.962Z,7.70
2017-12-20T13:46:43.427Z,6.90
2017-12-20T13:51:44.907Z,6.40
2017-12-20T13:56:47.008Z,5.90
2017-12-20T14:01:48.506Z,8.33
2017-12-20T14:06:50.018Z,7.47
2017-12-20T14:11:51.522Z,8.77
2017-12-20T14:16:53.034Z,7.43
2017-12-20T14:21:54.505Z,7.57
2017-12-20T14:26:55.966Z,8.40
2017-12-20T14:31:57.415Z,9.30
2017-12-20T14:36:58.890Z,8.00
2017-12-20T14:42:00.354Z,8.20
2017-12-20T14:47:01.830Z,8.50
2017-12-20T14:52:03.300Z,8.63
2017-12-20T14:57:04.938Z,8.47
2017-12-20T15:02:06.459Z,8.73
2017-12-20T15:07:08.706Z,9.20
2017-12-20T15:12:10.938Z,7.87
2017-12-20T15:17:12.436Z,6.97
2017-12-20T15:22:14.653Z,8.67
2017-12-20T15:27:17.622Z,7.13
2017-12-20T15:32:19.871Z,8.20
2017-12-20T15:37:21.369Z,8.40
2017-12-20T15:42:23.623Z,7.33
2017-12-20T15:47:25.118Z,9.90
2017-12-20T15:52:27.936Z,9.23
2017-12-20T15:57:29.538Z,8.63
2017-12-20T16:02:31.051Z,9.87
2017-12-20T16:07:32.542Z,10.60
2017-12-20T16:12:34.045Z,11.27
2017-12-20T16:17:36.343Z,8.33
2017-12-20T16:22:37.815Z,7.90
2017-12-20T16:27:39.682Z,9.33
2017-12-20T16:32:41.214Z,8.30
2017-12-20T16:37:44.184Z,8.20
2017-12-20T16:42:46.784Z,8.20
2017-12-20T16:47:48.275Z,8.20
2017-12-20T16:52:49.773Z,7.07
2017-12-20T16:57:51.849Z,8.73
2017-12-20T17:02:53.395Z,9.87
2017-12-20T17:07:55.029Z,10.70
2017-12-20T17:12:57.423Z,9.57
2017-12-20T17:17:58.878Z,9.63
2017-12-20T17:23:01.111Z,7.90
2017-12-20T17:28:03.351Z,8.67
2017-12-20T17:33:04.883Z,9.00
2017-12-20T17:38:06.373Z,8.90
2017-12-20T17:43:08.606Z,9.73
2017-12-20T17:48:10.861Z,7.13
2017-12-20T17:53:12.361Z,8.43
2017-12-20T17:58:15.066Z,8.70
2017-12-20T18:03:16.580Z,10.30
2017-12-20T18:08:18.110Z,10.20
2017-12-20T18:13:19.686Z,8.90
2017-12-20T18:18:21.170Z,9.53
2017-12-20T18:23:23.403Z,10.83
2017-12-20T18:28:26.002Z,9.67
2017-12-20T18:33:27.479Z,9.20
2017-12-20T18:38:29.002Z,9.40
2017-12-20T18:43:30.494Z,9.93
2017-12-20T18:48:31.983Z,9.60
2017-12-20T18:53:33.971Z,8.83
2017-12-20T18:58:35.670Z,9.17
2017-12-20T19:03:37.951Z,10.23
2017-12-20T19:08:39.644Z,11.47
2017-12-20T19:13:41.112Z,10.80
2017-12-20T19:18:42.859Z,11.50
2017-12-20T19:23:44.406Z,11.60
2017-12-20T19:28:46.979Z,10.33
2017-12-20T19:33:48.542Z,11.90
2017-12-20T19:38:50.234Z,9.10
2017-12-20T19:43:52.294Z,11.07
2017-12-20T19:48:53.846Z,10.70
2017-12-20T19:53:55.523Z,13.40
2017-12-20T19:58:57.179Z,11.13
2017-12-20T20:03:59.063Z,13.03
2017-12-20T20:09:00.738Z,11.50
2017-12-20T20:14:02.466Z,12.90
2017-12-20T20:19:03.986Z,12.07
2017-12-20T20:24:05.624Z,13.97
2017-12-20T20:29:07.582Z,11.60
2017-12-20T20:34:09.079Z,11.57
2017-12-20T20:39:11.433Z,13.10
2017-12-20T20:44:12.980Z,12.50
2017-12-20T20:49:14.495Z,12.83
2017-12-20T20:54:15.974Z,12.40
2017-12-20T20:59:18.597Z,12.23
2017-12-20T21:04:20.888Z,11.03
2017-12-20T21:09:22.415Z,12.90
2017-12-20T21:14:23.883Z,12.30
2017-12-20T21:19:26.091Z,13.73
2017-12-20T21:24:27.631Z,14.00
2017-12-20T21:29:30.247Z,12.50
2017-12-20T21:34:32.082Z,13.07
2017-12-20T21:39:33.573Z,13.10
2017-12-20T21:44:35.065Z,15.07
2017-12-20T21:49:36.678Z,14.30
2017-12-20T21:54:38.241Z,13.60
2017-12-20T21:59:40.146Z,12.97
2017-12-20T22:04:41.647Z,14.70
2017-12-20T22:09:43.113Z,14.63
2017-12-20T22:14:44.628Z,12.90
2017-12-20T22:19:46.126Z,13.83
2017-12-20T22:24:47.581Z,14.60
2017-12-20T22:29:50.166Z,15.03
2017-12-20T22:34:51.614Z,16.40
2017-12-20T22:39:53.067Z,14.40
2017-12-20T22:44:54.529Z,15.13
2017-12-20T22:49:56.001Z,13.93
2017-12-20T22:54:57.443Z,15.57
2017-12-20T22:59:59.000Z,14.47
2017-12-20T23:05:01.239Z,14.50
2017-12-20T23:10:03.519Z,14.87
2017-12-20T23:15:04.975Z,14.20
2017-12-20T23:20:06.423Z,13.67
2017-12-20T23:25:07.984Z,13.33
2017-12-20T23:30:09.811Z,13.87
2017-12-20T23:35:11.282Z,13.20
2017-12-20T23:40:12.786Z,14.43
2017-12-20T23:45:15.023Z,15.07
2017-12-20T23:50:16.509Z,12.67
2017-12-20T23:55:18.726Z,13.43
